sensor_id;sensor_type;location;lat;lon;timestamp;P1;durP1;ratioP1;P2;durP2;ratioP2
14704;SDS011;7442;50.840;3.396;2023-12-07T00:00:10;3.15;;;2.85;;
14704;SDS011;7442;50.840;3.396;2023-12-07T00:02:37;3.10;;;2.80;;
14704;SDS011;7442;50.840;3.396;2023-12-07T00:05:05;3.37;;;3.00;;
14704;SDS011;7442;50.840;3.396;2023-12-07T00:07:32;2.95;;;2.58;;
14704;SDS011;7442;50.840;3.396;2023-12-07T00:09:59;3.65;;;2.62;;
14704;SDS011;7442;50.840;3.396;2023-12-07T00:12:27;3.33;;;2.83;;
14704;SDS011;7442;50.840;3.396;2023-12-07T00:14:55;2.80;;;2.60;;
14704;SDS011;7442;50.840;3.396;2023-12-07T00:17:22;2.83;;;2.52;;
14704;SDS011;7442;50.840;3.396;2023-12-07T00:19:53;4.97;;;2.92;;
14704;SDS011;7442;50.840;3.396;2023-12-07T00:22:21;4.42;;;2.90;;
14704;SDS011;7442;50.840;3.396;2023-12-07T00:24:48;2.83;;;2.62;;
14704;SDS011;7442;50.840;3.396;2023-12-07T00:27:16;3.20;;;2.90;;
14704;SDS011;7442;50.840;3.396;2023-12-07T00:29:50;5.62;;;3.12;;
14704;SDS011;7442;50.840;3.396;2023-12-07T00:32:18;3.12;;;2.77;;
14704;SDS011;7442;50.840;3.396;2023-12-07T00:34:45;3.10;;;2.80;;
14704;SDS011;7442;50.840;3.396;2023-12-07T00:37:13;5.25;;;2.95;;
14704;SDS011;7442;50.840;3.396;2023-12-07T00:39:40;4.00;;;2.75;;
14704;SDS011;7442;50.840;3.396;2023-12-07T00:42:08;3.00;;;2.60;;
14704;SDS011;7442;50.840;3.396;2023-12-07T00:44:39;3.33;;;3.02;;
14704;SDS011;7442;50.840;3.396;2023-12-07T00:47:05;3.25;;;2.95;;
14704;SDS011;7442;50.840;3.396;2023-12-07T00:49:33;3.52;;;2.85;;
14704;SDS011;7442;50.840;3.396;2023-12-07T00:52:01;3.20;;;2.90;;
14704;SDS011;7442;50.840;3.396;2023-12-07T00:54:29;4.92;;;2.75;;
14704;SDS011;7442;50.840;3.396;2023-12-07T00:56:57;3.27;;;2.95;;
14704;SDS011;7442;50.840;3.396;2023-12-07T00:59:24;2.90;;;2.60;;
14704;SDS011;7442;50.840;3.396;2023-12-07T01:01:52;3.67;;;3.20;;
14704;SDS011;7442;50.840;3.396;2023-12-07T01:04:20;3.75;;;3.10;;
14704;SDS011;7442;50.840;3.396;2023-12-07T01:06:47;4.20;;;2.90;;
14704;SDS011;7442;50.840;3.396;2023-12-07T01:09:15;3.75;;;3.08;;
14704;SDS011;7442;50.840;3.396;2023-12-07T01:11:42;3.50;;;3.20;;
14704;SDS011;7442;50.840;3.396;2023-12-07T01:14:10;3.55;;;3.22;;
14704;SDS011;7442;50.840;3.396;2023-12-07T01:16:37;2.95;;;2.75;;
14704;SDS011;7442;50.840;3.396;2023-12-07T01:19:05;3.37;;;3.08;;
14704;SDS011;7442;50.840;3.396;2023-12-07T01:21:34;3.98;;;3.30;;
14704;SDS011;7442;50.840;3.396;2023-12-07T01:24:01;3.52;;;3.22;;
14704;SDS011;7442;50.840;3.396;2023-12-07T01:26:29;3.25;;;2.70;;
14704;SDS011;7442;50.840;3.396;2023-12-07T01:28:56;3.50;;;3.20;;
14704;SDS011;7442;50.840;3.396;2023-12-07T01:31:24;3.52;;;3.22;;
14704;SDS011;7442;50.840;3.396;2023-12-07T01:33:56;3.33;;;3.02;;
14704;SDS011;7442;50.840;3.396;2023-12-07T01:36:23;3.08;;;2.75;;
14704;SDS011;7442;50.840;3.396;2023-12-07T01:38:51;4.17;;;2.75;;
14704;SDS011;7442;50.840;3.396;2023-12-07T01:41:18;3.72;;;3.10;;
14704;SDS011;7442;50.840;3.396;2023-12-07T01:43:47;4.37;;;3.35;;
14704;SDS011;7442;50.840;3.396;2023-12-07T01:46:15;3.75;;;3.37;;
14704;SDS011;7442;50.840;3.396;2023-12-07T01:48:44;3.27;;;2.87;;
14704;SDS011;7442;50.840;3.396;2023-12-07T01:51:13;3.83;;;3.22;;
14704;SDS011;7442;50.840;3.396;2023-12-07T01:53:41;3.65;;;3.30;;
14704;SDS011;7442;50.840;3.396;2023-12-07T01:56:09;3.50;;;3.20;;
14704;SDS011;7442;50.840;3.396;2023-12-07T01:58:39;3.80;;;3.20;;
14704;SDS011;7442;50.840;3.396;2023-12-07T02:01:07;3.58;;;3.12;;
14704;SDS011;7442;50.840;3.396;2023-12-07T02:03:35;4.35;;;3.30;;
14704;SDS011;7442;50.840;3.396;2023-12-07T02:06:03;3.30;;;3.00;;
14704;SDS011;7442;50.840;3.396;2023-12-07T02:08:31;3.55;;;3.25;;
14704;SDS011;7442;50.840;3.396;2023-12-07T02:10:59;3.22;;;2.92;;
14704;SDS011;7442;50.840;3.396;2023-12-07T02:13:26;3.20;;;2.90;;
14704;SDS011;7442;50.840;3.396;2023-12-07T02:15:54;3.58;;;3.27;;
14704;SDS011;7442;50.840;3.396;2023-12-07T02:18:32;3.35;;;3.05;;
14704;SDS011;7442;50.840;3.396;2023-12-07T02:21:02;2.80;;;2.60;;
14704;SDS011;7442;50.840;3.396;2023-12-07T02:23:30;3.65;;;3.27;;
14704;SDS011;7442;50.840;3.396;2023-12-07T02:26:02;2.92;;;2.72;;
14704;SDS011;7442;50.840;3.396;2023-12-07T02:28:28;3.20;;;2.90;;
14704;SDS011;7442;50.840;3.396;2023-12-07T02:30:58;4.55;;;2.70;;
14704;SDS011;7442;50.840;3.396;2023-12-07T02:33:26;3.42;;;3.12;;
14704;SDS011;7442;50.840;3.396;2023-12-07T02:35:54;2.80;;;2.60;;
14704;SDS011;7442;50.840;3.396;2023-12-07T02:38:25;3.95;;;3.55;;
14704;SDS011;7442;50.840;3.396;2023-12-07T02:40:54;3.20;;;2.90;;
14704;SDS011;7442;50.840;3.396;2023-12-07T02:43:22;3.55;;;3.00;;
14704;SDS011;7442;50.840;3.396;2023-12-07T02:45:49;4.10;;;3.30;;
14704;SDS011;7442;50.840;3.396;2023-12-07T02:48:17;3.37;;;3.08;;
14704;SDS011;7442;50.840;3.396;2023-12-07T02:50:45;3.40;;;3.10;;
14704;SDS011;7442;50.840;3.396;2023-12-07T02:53:12;3.17;;;2.90;;
14704;SDS011;7442;50.840;3.396;2023-12-07T02:55:40;3.30;;;3.00;;
14704;SDS011;7442;50.840;3.396;2023-12-07T02:58:07;2.67;;;2.47;;
14704;SDS011;7442;50.840;3.396;2023-12-07T03:00:35;3.83;;;2.80;;
14704;SDS011;7442;50.840;3.396;2023-12-07T03:03:05;3.55;;;3.25;;
14704;SDS011;7442;50.840;3.396;2023-12-07T03:05:32;3.37;;;2.87;;
14704;SDS011;7442;50.840;3.396;2023-12-07T03:08:00;2.83;;;2.62;;
14704;SDS011;7442;50.840;3.396;2023-12-07T03:10:29;3.85;;;2.95;;
14704;SDS011;7442;50.840;3.396;2023-12-07T03:12:56;2.90;;;2.70;;
14704;SDS011;7442;50.840;3.396;2023-12-07T03:15:24;3.00;;;2.70;;
14704;SDS011;7442;50.840;3.396;2023-12-07T03:17:52;3.17;;;2.87;;
14704;SDS011;7442;50.840;3.396;2023-12-07T03:20:20;2.87;;;2.65;;
14704;SDS011;7442;50.840;3.396;2023-12-07T03:22:47;3.30;;;2.70;;
14704;SDS011;7442;50.840;3.396;2023-12-07T03:25:15;2.70;;;2.50;;
14704;SDS011;7442;50.840;3.396;2023-12-07T03:27:43;3.50;;;2.75;;
14704;SDS011;7442;50.840;3.396;2023-12-07T03:30:10;2.62;;;2.42;;
14704;SDS011;7442;50.840;3.396;2023-12-07T03:32:38;2.92;;;2.72;;
14704;SDS011;7442;50.840;3.396;2023-12-07T03:35:05;2.92;;;2.42;;
14704;SDS011;7442;50.840;3.396;2023-12-07T03:37:33;3.25;;;2.90;;
14704;SDS011;7442;50.840;3.396;2023-12-07T03:40:03;3.22;;;2.92;;
14704;SDS011;7442;50.840;3.396;2023-12-07T03:42:32;2.60;;;2.40;;
14704;SDS011;7442;50.840;3.396;2023-12-07T03:45:00;3.27;;;2.98;;
14704;SDS011;7442;50.840;3.396;2023-12-07T03:47:27;2.90;;;2.65;;
14704;SDS011;7442;50.840;3.396;2023-12-07T03:49:55;3.25;;;2.85;;
14704;SDS011;7442;50.840;3.396;2023-12-07T03:52:23;3.37;;;2.70;;
14704;SDS011;7442;50.840;3.396;2023-12-07T03:54:52;3.15;;;2.85;;
14704;SDS011;7442;50.840;3.396;2023-12-07T03:57:19;2.42;;;2.22;;
14704;SDS011;7442;50.840;3.396;2023-12-07T03:59:47;2.90;;;2.65;;
14704;SDS011;7442;50.840;3.396;2023-12-07T04:02:15;3.20;;;2.90;;
14704;SDS011;7442;50.840;3.396;2023-12-07T04:04:42;3.05;;;2.75;;
14704;SDS011;7442;50.840;3.396;2023-12-07T04:07:10;3.02;;;2.83;;
14704;SDS011;7442;50.840;3.396;2023-12-07T04:09:37;3.08;;;2.80;;
14704;SDS011;7442;50.840;3.396;2023-12-07T04:12:06;2.60;;;2.40;;
14704;SDS011;7442;50.840;3.396;2023-12-07T04:14:33;2.67;;;2.47;;
14704;SDS011;7442;50.840;3.396;2023-12-07T04:17:01;3.00;;;2.58;;
14704;SDS011;7442;50.840;3.396;2023-12-07T04:19:28;3.08;;;2.62;;
14704;SDS011;7442;50.840;3.396;2023-12-07T04:21:56;3.08;;;2.67;;
14704;SDS011;7442;50.840;3.396;2023-12-07T04:24:23;3.27;;;2.60;;
14704;SDS011;7442;50.840;3.396;2023-12-07T04:26:51;3.50;;;2.60;;
14704;SDS011;7442;50.840;3.396;2023-12-07T04:29:18;2.55;;;2.35;;
14704;SDS011;7442;50.840;3.396;2023-12-07T04:31:47;2.72;;;2.50;;
14704;SDS011;7442;50.840;3.396;2023-12-07T04:34:15;3.15;;;2.85;;
14704;SDS011;7442;50.840;3.396;2023-12-07T04:36:42;3.90;;;2.58;;
14704;SDS011;7442;50.840;3.396;2023-12-07T04:39:13;3.00;;;2.55;;
14704;SDS011;7442;50.840;3.396;2023-12-07T04:41:41;2.52;;;2.33;;
14704;SDS011;7442;50.840;3.396;2023-12-07T04:44:09;2.62;;;2.42;;
14704;SDS011;7442;50.840;3.396;2023-12-07T04:46:36;2.62;;;2.37;;
14704;SDS011;7442;50.840;3.396;2023-12-07T04:49:04;3.37;;;2.55;;
14704;SDS011;7442;50.840;3.396;2023-12-07T04:51:31;2.52;;;2.33;;
14704;SDS011;7442;50.840;3.396;2023-12-07T04:53:59;3.30;;;3.00;;
14704;SDS011;7442;50.840;3.396;2023-12-07T04:56:26;2.92;;;2.62;;
14704;SDS011;7442;50.840;3.396;2023-12-07T04:58:54;2.98;;;2.55;;
14704;SDS011;7442;50.840;3.396;2023-12-07T05:01:21;3.15;;;2.30;;
14704;SDS011;7442;50.840;3.396;2023-12-07T05:03:50;2.27;;;2.08;;
14704;SDS011;7442;50.840;3.396;2023-12-07T05:06:18;2.50;;;2.30;;
14704;SDS011;7442;50.840;3.396;2023-12-07T05:08:46;3.15;;;2.85;;
14704;SDS011;7442;50.840;3.396;2023-12-07T05:11:15;2.95;;;2.37;;
14704;SDS011;7442;50.840;3.396;2023-12-07T05:13:42;2.33;;;2.10;;
14704;SDS011;7442;50.840;3.396;2023-12-07T05:16:10;2.60;;;2.40;;
14704;SDS011;7442;50.840;3.396;2023-12-07T05:18:37;3.72;;;2.50;;
14704;SDS011;7442;50.840;3.396;2023-12-07T05:21:05;3.33;;;2.62;;
14704;SDS011;7442;50.840;3.396;2023-12-07T05:23:33;2.83;;;2.30;;
14704;SDS011;7442;50.840;3.396;2023-12-07T05:26:00;3.15;;;2.42;;
14704;SDS011;7442;50.840;3.396;2023-12-07T05:28:28;2.30;;;2.10;;
14704;SDS011;7442;50.840;3.396;2023-12-07T05:30:55;4.20;;;2.20;;
14704;SDS011;7442;50.840;3.396;2023-12-07T05:33:23;2.55;;;2.30;;
14704;SDS011;7442;50.840;3.396;2023-12-07T05:35:51;3.42;;;2.10;;
14704;SDS011;7442;50.840;3.396;2023-12-07T05:38:19;2.70;;;2.50;;
14704;SDS011;7442;50.840;3.396;2023-12-07T05:40:49;2.80;;;2.60;;
14704;SDS011;7442;50.840;3.396;2023-12-07T05:43:16;3.05;;;2.47;;
14704;SDS011;7442;50.840;3.396;2023-12-07T05:45:45;3.50;;;2.40;;
14704;SDS011;7442;50.840;3.396;2023-12-07T05:48:13;2.37;;;2.17;;
14704;SDS011;7442;50.840;3.396;2023-12-07T05:50:41;2.22;;;2.02;;
14704;SDS011;7442;50.840;3.396;2023-12-07T05:53:08;2.50;;;2.30;;
14704;SDS011;7442;50.840;3.396;2023-12-07T05:55:36;3.22;;;2.40;;
14704;SDS011;7442;50.840;3.396;2023-12-07T05:58:04;2.92;;;2.45;;
14704;SDS011;7442;50.840;3.396;2023-12-07T06:00:32;2.98;;;2.20;;
14704;SDS011;7442;50.840;3.396;2023-12-07T06:03:01;2.67;;;2.40;;
14704;SDS011;7442;50.840;3.396;2023-12-07T06:05:29;2.37;;;2.17;;
14704;SDS011;7442;50.840;3.396;2023-12-07T06:07:57;2.45;;;2.25;;
14704;SDS011;7442;50.840;3.396;2023-12-07T06:10:25;2.33;;;2.12;;
14704;SDS011;7442;50.840;3.396;2023-12-07T06:12:52;2.25;;;2.05;;
14704;SDS011;7442;50.840;3.396;2023-12-07T06:15:22;2.37;;;2.17;;
14704;SDS011;7442;50.840;3.396;2023-12-07T06:17:52;3.52;;;2.30;;
14704;SDS011;7442;50.840;3.396;2023-12-07T06:20:19;2.98;;;2.27;;
14704;SDS011;7442;50.840;3.396;2023-12-07T06:22:47;2.35;;;2.15;;
14704;SDS011;7442;50.840;3.396;2023-12-07T06:25:15;6.75;;;2.40;;
14704;SDS011;7442;50.840;3.396;2023-12-07T06:27:42;3.92;;;2.37;;
14704;SDS011;7442;50.840;3.396;2023-12-07T06:30:12;4.33;;;2.62;;
14704;SDS011;7442;50.840;3.396;2023-12-07T06:32:39;2.98;;;2.10;;
14704;SDS011;7442;50.840;3.396;2023-12-07T06:35:07;4.33;;;2.12;;
14704;SDS011;7442;50.840;3.396;2023-12-07T06:37:35;4.28;;;2.58;;
14704;SDS011;7442;50.840;3.396;2023-12-07T06:40:05;2.98;;;2.52;;
14704;SDS011;7442;50.840;3.396;2023-12-07T06:42:35;3.90;;;2.70;;
14704;SDS011;7442;50.840;3.396;2023-12-07T06:45:03;3.33;;;2.58;;
14704;SDS011;7442;50.840;3.396;2023-12-07T06:47:30;3.70;;;2.72;;
14704;SDS011;7442;50.840;3.396;2023-12-07T06:49:58;2.80;;;2.17;;
14704;SDS011;7442;50.840;3.396;2023-12-07T06:52:25;3.67;;;2.60;;
14704;SDS011;7442;50.840;3.396;2023-12-07T06:54:53;4.35;;;2.77;;
14704;SDS011;7442;50.840;3.396;2023-12-07T06:57:21;8.63;;;2.77;;
14704;SDS011;7442;50.840;3.396;2023-12-07T06:59:48;4.75;;;3.00;;
14704;SDS011;7442;50.840;3.396;2023-12-07T07:02:16;3.35;;;2.90;;
14704;SDS011;7442;50.840;3.396;2023-12-07T07:04:43;3.70;;;2.67;;
14704;SDS011;7442;50.840;3.396;2023-12-07T07:07:11;3.75;;;2.52;;
14704;SDS011;7442;50.840;3.396;2023-12-07T07:09:38;3.12;;;2.20;;
14704;SDS011;7442;50.840;3.396;2023-12-07T07:12:06;4.55;;;2.58;;
14704;SDS011;7442;50.840;3.396;2023-12-07T07:14:35;2.92;;;2.50;;
14704;SDS011;7442;50.840;3.396;2023-12-07T07:17:02;4.47;;;2.60;;
14704;SDS011;7442;50.840;3.396;2023-12-07T07:19:31;3.60;;;2.52;;
14704;SDS011;7442;50.840;3.396;2023-12-07T07:21:58;2.72;;;2.50;;
14704;SDS011;7442;50.840;3.396;2023-12-07T07:24:26;2.62;;;2.08;;
14704;SDS011;7442;50.840;3.396;2023-12-07T07:26:54;3.52;;;2.60;;
14704;SDS011;7442;50.840;3.396;2023-12-07T07:29:21;3.83;;;2.30;;
14704;SDS011;7442;50.840;3.396;2023-12-07T07:31:49;2.87;;;2.20;;
14704;SDS011;7442;50.840;3.396;2023-12-07T07:34:17;4.70;;;2.20;;
14704;SDS011;7442;50.840;3.396;2023-12-07T07:36:44;2.65;;;2.02;;
14704;SDS011;7442;50.840;3.396;2023-12-07T07:39:12;2.85;;;2.30;;
14704;SDS011;7442;50.840;3.396;2023-12-07T07:41:42;4.17;;;2.60;;
14704;SDS011;7442;50.840;3.396;2023-12-07T07:44:09;2.92;;;2.50;;
14704;SDS011;7442;50.840;3.396;2023-12-07T07:46:37;2.72;;;2.22;;
14704;SDS011;7442;50.840;3.396;2023-12-07T07:49:06;2.72;;;2.30;;
14704;SDS011;7442;50.840;3.396;2023-12-07T07:51:34;2.60;;;2.15;;
14704;SDS011;7442;50.840;3.396;2023-12-07T07:54:01;3.80;;;2.50;;
14704;SDS011;7442;50.840;3.396;2023-12-07T07:56:29;3.60;;;2.30;;
14704;SDS011;7442;50.840;3.396;2023-12-07T07:58:57;2.72;;;2.20;;
14704;SDS011;7442;50.840;3.396;2023-12-07T08:01:26;3.00;;;2.02;;
14704;SDS011;7442;50.840;3.396;2023-12-07T08:03:54;2.37;;;2.17;;
14704;SDS011;7442;50.840;3.396;2023-12-07T08:06:40;3.22;;;2.30;;
14704;SDS011;7442;50.840;3.396;2023-12-07T08:09:27;3.08;;;2.20;;
14704;SDS011;7442;50.840;3.396;2023-12-07T08:12:14;2.47;;;2.08;;
14704;SDS011;7442;50.840;3.396;2023-12-07T08:15:02;2.45;;;2.12;;
14704;SDS011;7442;50.840;3.396;2023-12-07T08:17:48;3.62;;;2.37;;
14704;SDS011;7442;50.840;3.396;2023-12-07T08:20:36;6.72;;;2.40;;
14704;SDS011;7442;50.840;3.396;2023-12-07T08:23:04;7.10;;;2.45;;
14704;SDS011;7442;50.840;3.396;2023-12-07T08:25:32;2.58;;;2.05;;
14704;SDS011;7442;50.840;3.396;2023-12-07T08:28:00;3.17;;;2.20;;
14704;SDS011;7442;50.840;3.396;2023-12-07T08:30:27;6.62;;;2.50;;
14704;SDS011;7442;50.840;3.396;2023-12-07T08:32:55;4.80;;;2.52;;
14704;SDS011;7442;50.840;3.396;2023-12-07T08:35:23;4.90;;;2.40;;
14704;SDS011;7442;50.840;3.396;2023-12-07T08:37:50;5.22;;;2.60;;
14704;SDS011;7442;50.840;3.396;2023-12-07T08:40:18;4.33;;;2.72;;
14704;SDS011;7442;50.840;3.396;2023-12-07T08:42:46;6.67;;;2.65;;
14704;SDS011;7442;50.840;3.396;2023-12-07T08:45:14;3.62;;;2.40;;
14704;SDS011;7442;50.840;3.396;2023-12-07T08:47:42;4.35;;;2.20;;
14704;SDS011;7442;50.840;3.396;2023-12-07T08:50:10;4.28;;;2.30;;
14704;SDS011;7442;50.840;3.396;2023-12-07T08:52:37;3.58;;;2.40;;
14704;SDS011;7442;50.840;3.396;2023-12-07T08:55:07;4.25;;;2.50;;
14704;SDS011;7442;50.840;3.396;2023-12-07T08:57:34;3.77;;;2.27;;
14704;SDS011;7442;50.840;3.396;2023-12-07T09:00:02;3.50;;;2.30;;
14704;SDS011;7442;50.840;3.396;2023-12-07T09:02:30;5.00;;;2.42;;
14704;SDS011;7442;50.840;3.396;2023-12-07T09:04:59;3.33;;;2.58;;
14704;SDS011;7442;50.840;3.396;2023-12-07T09:07:28;5.75;;;2.25;;
14704;SDS011;7442;50.840;3.396;2023-12-07T09:09:57;5.08;;;2.22;;
14704;SDS011;7442;50.840;3.396;2023-12-07T09:12:25;4.35;;;2.52;;
14704;SDS011;7442;50.840;3.396;2023-12-07T09:14:53;5.40;;;2.55;;
14704;SDS011;7442;50.840;3.396;2023-12-07T09:17:20;5.70;;;2.90;;
14704;SDS011;7442;50.840;3.396;2023-12-07T09:19:48;5.53;;;2.67;;
14704;SDS011;7442;50.840;3.396;2023-12-07T09:22:16;3.65;;;2.65;;
14704;SDS011;7442;50.840;3.396;2023-12-07T09:24:43;3.50;;;2.30;;
14704;SDS011;7442;50.840;3.396;2023-12-07T09:27:15;5.75;;;2.60;;
14704;SDS011;7442;50.840;3.396;2023-12-07T09:29:43;4.15;;;2.55;;
14704;SDS011;7442;50.840;3.396;2023-12-07T09:32:10;8.80;;;2.67;;
14704;SDS011;7442;50.840;3.396;2023-12-07T09:34:39;3.42;;;2.65;;
14704;SDS011;7442;50.840;3.396;2023-12-07T09:37:10;5.58;;;2.80;;
14704;SDS011;7442;50.840;3.396;2023-12-07T09:39:37;4.22;;;2.70;;
14704;SDS011;7442;50.840;3.396;2023-12-07T09:42:05;5.70;;;2.45;;
14704;SDS011;7442;50.840;3.396;2023-12-07T09:44:33;4.03;;;2.33;;
14704;SDS011;7442;50.840;3.396;2023-12-07T09:47:01;4.45;;;2.45;;
14704;SDS011;7442;50.840;3.396;2023-12-07T09:49:29;4.28;;;2.77;;
14704;SDS011;7442;50.840;3.396;2023-12-07T09:51:58;6.37;;;2.55;;
14704;SDS011;7442;50.840;3.396;2023-12-07T09:54:27;5.55;;;2.72;;
14704;SDS011;7442;50.840;3.396;2023-12-07T09:56:55;4.20;;;2.65;;
14704;SDS011;7442;50.840;3.396;2023-12-07T09:59:24;5.45;;;2.67;;
14704;SDS011;7442;50.840;3.396;2023-12-07T10:01:51;6.42;;;4.50;;
14704;SDS011;7442;50.840;3.396;2023-12-07T10:04:22;6.17;;;3.00;;
14704;SDS011;7442;50.840;3.396;2023-12-07T10:06:52;6.33;;;3.10;;
14704;SDS011;7442;50.840;3.396;2023-12-07T10:09:20;4.53;;;2.72;;
14704;SDS011;7442;50.840;3.396;2023-12-07T10:11:48;10.43;;;3.25;;
14704;SDS011;7442;50.840;3.396;2023-12-07T10:14:17;10.32;;;2.85;;
14704;SDS011;7442;50.840;3.396;2023-12-07T10:16:55;9.35;;;3.08;;
14704;SDS011;7442;50.840;3.396;2023-12-07T10:19:21;9.28;;;3.20;;
14704;SDS011;7442;50.840;3.396;2023-12-07T10:21:50;5.67;;;3.10;;
14704;SDS011;7442;50.840;3.396;2023-12-07T10:24:18;8.13;;;3.08;;
14704;SDS011;7442;50.840;3.396;2023-12-07T10:26:47;6.00;;;2.95;;
14704;SDS011;7442;50.840;3.396;2023-12-07T10:29:14;10.72;;;2.80;;
14704;SDS011;7442;50.840;3.396;2023-12-07T10:31:43;4.55;;;2.70;;
14704;SDS011;7442;50.840;3.396;2023-12-07T10:34:13;8.13;;;3.92;;
14704;SDS011;7442;50.840;3.396;2023-12-07T10:36:44;7.53;;;3.00;;
14704;SDS011;7442;50.840;3.396;2023-12-07T10:39:12;5.00;;;3.33;;
14704;SDS011;7442;50.840;3.396;2023-12-07T10:41:41;7.00;;;2.70;;
14704;SDS011;7442;50.840;3.396;2023-12-07T10:44:11;5.47;;;2.77;;
14704;SDS011;7442;50.840;3.396;2023-12-07T10:46:46;5.37;;;2.90;;
14704;SDS011;7442;50.840;3.396;2023-12-07T10:49:15;5.05;;;2.58;;
14704;SDS011;7442;50.840;3.396;2023-12-07T10:51:51;7.70;;;2.85;;
14704;SDS011;7442;50.840;3.396;2023-12-07T10:54:20;7.12;;;2.70;;
14704;SDS011;7442;50.840;3.396;2023-12-07T10:56:49;6.83;;;2.90;;
14704;SDS011;7442;50.840;3.396;2023-12-07T10:59:17;4.22;;;2.77;;
14704;SDS011;7442;50.840;3.396;2023-12-07T11:01:44;6.03;;;2.72;;
14704;SDS011;7442;50.840;3.396;2023-12-07T11:04:13;4.65;;;2.52;;
14704;SDS011;7442;50.840;3.396;2023-12-07T11:06:41;3.72;;;2.30;;
14704;SDS011;7442;50.840;3.396;2023-12-07T11:09:15;6.08;;;2.58;;
14704;SDS011;7442;50.840;3.396;2023-12-07T11:11:46;8.73;;;2.70;;
14704;SDS011;7442;50.840;3.396;2023-12-07T11:14:09;3.50;;;2.50;;
14704;SDS011;7442;50.840;3.396;2023-12-07T11:16:42;4.78;;;2.30;;
14704;SDS011;7442;50.840;3.396;2023-12-07T11:22:06;4.45;;;2.60;;
14704;SDS011;7442;50.840;3.396;2023-12-07T11:24:36;5.50;;;2.83;;
14704;SDS011;7442;50.840;3.396;2023-12-07T11:27:04;6.33;;;2.87;;
14704;SDS011;7442;50.840;3.396;2023-12-07T11:29:32;8.10;;;2.40;;
14704;SDS011;7442;50.840;3.396;2023-12-07T11:32:02;4.03;;;2.87;;
14704;SDS011;7442;50.840;3.396;2023-12-07T11:34:42;3.58;;;2.60;;
14704;SDS011;7442;50.840;3.396;2023-12-07T11:37:06;4.58;;;2.30;;
14704;SDS011;7442;50.840;3.396;2023-12-07T11:39:35;8.63;;;2.52;;
14704;SDS011;7442;50.840;3.396;2023-12-07T11:42:11;4.53;;;2.22;;
14704;SDS011;7442;50.840;3.396;2023-12-07T11:44:35;5.30;;;2.67;;
14704;SDS011;7442;50.840;3.396;2023-12-07T11:47:04;3.02;;;2.27;;
14704;SDS011;7442;50.840;3.396;2023-12-07T11:49:32;4.15;;;2.15;;
14704;SDS011;7442;50.840;3.396;2023-12-07T11:52:00;4.55;;;2.30;;
14704;SDS011;7442;50.840;3.396;2023-12-07T11:54:28;3.02;;;2.22;;
14704;SDS011;7442;50.840;3.396;2023-12-07T11:56:55;3.50;;;2.37;;
14704;SDS011;7442;50.840;3.396;2023-12-07T11:59:23;4.33;;;2.00;;
14704;SDS011;7442;50.840;3.396;2023-12-07T12:01:54;5.15;;;2.37;;
14704;SDS011;7442;50.840;3.396;2023-12-07T12:04:22;6.95;;;2.33;;
14704;SDS011;7442;50.840;3.396;2023-12-07T12:06:49;4.62;;;2.55;;
14704;SDS011;7442;50.840;3.396;2023-12-07T12:09:17;5.47;;;2.85;;
14704;SDS011;7442;50.840;3.396;2023-12-07T12:11:45;5.92;;;2.50;;
14704;SDS011;7442;50.840;3.396;2023-12-07T12:14:17;6.00;;;2.62;;
14704;SDS011;7442;50.840;3.396;2023-12-07T12:16:45;8.05;;;2.42;;
14704;SDS011;7442;50.840;3.396;2023-12-07T12:19:13;20.02;;;3.45;;
14704;SDS011;7442;50.840;3.396;2023-12-07T12:21:41;15.93;;;3.77;;
14704;SDS011;7442;50.840;3.396;2023-12-07T12:24:12;22.98;;;3.70;;
14704;SDS011;7442;50.840;3.396;2023-12-07T12:26:41;13.03;;;3.08;;
14704;SDS011;7442;50.840;3.396;2023-12-07T12:29:09;18.40;;;3.15;;
14704;SDS011;7442;50.840;3.396;2023-12-07T12:31:38;11.73;;;3.02;;
14704;SDS011;7442;50.840;3.396;2023-12-07T12:34:06;11.00;;;3.52;;
14704;SDS011;7442;50.840;3.396;2023-12-07T12:36:38;14.38;;;3.27;;
14704;SDS011;7442;50.840;3.396;2023-12-07T12:39:07;16.67;;;3.70;;
14704;SDS011;7442;50.840;3.396;2023-12-07T12:41:35;11.25;;;3.58;;
14704;SDS011;7442;50.840;3.396;2023-12-07T12:44:05;9.35;;;3.17;;
14704;SDS011;7442;50.840;3.396;2023-12-07T12:46:34;11.45;;;3.52;;
14704;SDS011;7442;50.840;3.396;2023-12-07T12:49:20;11.68;;;2.80;;
14704;SDS011;7442;50.840;3.396;2023-12-07T12:52:09;12.98;;;3.05;;
14704;SDS011;7442;50.840;3.396;2023-12-07T12:54:57;10.28;;;2.90;;
14704;SDS011;7442;50.840;3.396;2023-12-07T12:57:43;26.65;;;4.08;;
14704;SDS011;7442;50.840;3.396;2023-12-07T13:00:29;20.80;;;3.58;;
14704;SDS011;7442;50.840;3.396;2023-12-07T13:03:17;14.85;;;3.50;;
14704;SDS011;7442;50.840;3.396;2023-12-07T13:06:03;14.80;;;3.40;;
14704;SDS011;7442;50.840;3.396;2023-12-07T13:08:50;13.22;;;3.90;;
14704;SDS011;7442;50.840;3.396;2023-12-07T13:11:36;18.82;;;3.60;;
14704;SDS011;7442;50.840;3.396;2023-12-07T13:14:23;14.47;;;3.60;;
14704;SDS011;7442;50.840;3.396;2023-12-07T13:17:09;9.05;;;3.30;;
14704;SDS011;7442;50.840;3.396;2023-12-07T13:19:36;16.07;;;3.50;;
14704;SDS011;7442;50.840;3.396;2023-12-07T13:22:04;10.85;;;3.10;;
14704;SDS011;7442;50.840;3.396;2023-12-07T13:24:31;14.98;;;3.25;;
14704;SDS011;7442;50.840;3.396;2023-12-07T13:26:58;21.62;;;4.37;;
14704;SDS011;7442;50.840;3.396;2023-12-07T13:29:26;18.70;;;3.15;;
14704;SDS011;7442;50.840;3.396;2023-12-07T13:31:54;9.98;;;3.37;;
14704;SDS011;7442;50.840;3.396;2023-12-07T13:34:23;16.70;;;3.15;;
14704;SDS011;7442;50.840;3.396;2023-12-07T13:36:52;17.95;;;3.45;;
14704;SDS011;7442;50.840;3.396;2023-12-07T13:39:19;11.35;;;2.90;;
14704;SDS011;7442;50.840;3.396;2023-12-07T13:41:47;14.07;;;3.15;;
14704;SDS011;7442;50.840;3.396;2023-12-07T13:44:16;10.08;;;3.10;;
14704;SDS011;7442;50.840;3.396;2023-12-07T13:46:44;8.13;;;2.80;;
14704;SDS011;7442;50.840;3.396;2023-12-07T13:49:12;10.35;;;2.95;;
14704;SDS011;7442;50.840;3.396;2023-12-07T13:51:40;12.15;;;2.90;;
14704;SDS011;7442;50.840;3.396;2023-12-07T13:54:09;9.05;;;2.95;;
14704;SDS011;7442;50.840;3.396;2023-12-07T13:56:37;12.43;;;3.10;;
14704;SDS011;7442;50.840;3.396;2023-12-07T13:59:06;7.22;;;3.30;;
14704;SDS011;7442;50.840;3.396;2023-12-07T14:01:36;9.15;;;3.20;;
14704;SDS011;7442;50.840;3.396;2023-12-07T14:04:06;12.33;;;3.17;;
14704;SDS011;7442;50.840;3.396;2023-12-07T14:06:34;16.12;;;3.67;;
14704;SDS011;7442;50.840;3.396;2023-12-07T14:09:02;12.25;;;3.50;;
14704;SDS011;7442;50.840;3.396;2023-12-07T14:11:30;8.98;;;3.22;;
14704;SDS011;7442;50.840;3.396;2023-12-07T14:13:58;7.53;;;3.17;;
14704;SDS011;7442;50.840;3.396;2023-12-07T14:16:26;8.98;;;3.22;;
14704;SDS011;7442;50.840;3.396;2023-12-07T14:18:53;24.23;;;4.80;;
14704;SDS011;7442;50.840;3.396;2023-12-07T14:21:21;30.15;;;4.72;;
14704;SDS011;7442;50.840;3.396;2023-12-07T14:23:50;14.50;;;3.85;;
14704;SDS011;7442;50.840;3.396;2023-12-07T14:26:20;14.90;;;4.17;;
14704;SDS011;7442;50.840;3.396;2023-12-07T14:28:48;15.43;;;4.28;;
14704;SDS011;7442;50.840;3.396;2023-12-07T14:31:17;16.80;;;4.62;;
14704;SDS011;7442;50.840;3.396;2023-12-07T14:33:45;23.85;;;4.37;;
14704;SDS011;7442;50.840;3.396;2023-12-07T14:36:14;17.73;;;3.52;;
14704;SDS011;7442;50.840;3.396;2023-12-07T14:38:42;24.40;;;3.83;;
14704;SDS011;7442;50.840;3.396;2023-12-07T14:41:09;17.57;;;3.80;;
14704;SDS011;7442;50.840;3.396;2023-12-07T14:43:38;23.27;;;4.55;;
14704;SDS011;7442;50.840;3.396;2023-12-07T14:46:07;23.55;;;4.58;;
14704;SDS011;7442;50.840;3.396;2023-12-07T14:48:36;19.42;;;4.08;;
14704;SDS011;7442;50.840;3.396;2023-12-07T14:51:05;12.98;;;3.80;;
14704;SDS011;7442;50.840;3.396;2023-12-07T14:53:33;20.32;;;3.60;;
14704;SDS011;7442;50.840;3.396;2023-12-07T14:56:01;21.82;;;4.33;;
14704;SDS011;7442;50.840;3.396;2023-12-07T14:58:28;12.82;;;3.77;;
14704;SDS011;7442;50.840;3.396;2023-12-07T15:00:56;25.40;;;3.50;;
14704;SDS011;7442;50.840;3.396;2023-12-07T15:03:24;16.07;;;3.80;;
14704;SDS011;7442;50.840;3.396;2023-12-07T15:05:52;17.77;;;4.05;;
14704;SDS011;7442;50.840;3.396;2023-12-07T15:08:20;16.73;;;3.65;;
14704;SDS011;7442;50.840;3.396;2023-12-07T15:10:48;17.12;;;3.83;;